createdAt,value
2017-11-17T00:00:44.904Z,97.53
2017-11-17T00:03:19.936Z,97.56
2017-11-17T00:05:54.933Z,97.51
2017-11-17T00:08:29.917Z,97.49
2017-11-17T00:11:04.984Z,97.42
2017-11-17T00:13:39.914Z,97.40
2017-11-17T00:16:14.429Z,97.19
2017-11-17T00:18:49.280Z,97.07
2017-11-17T00:21:24.001Z,97.08
2017-11-17T00:23:59.779Z,96.52
2017-11-17T00:26:35.021Z,96.21
2017-11-17T00:29:10.022Z,96.08
2017-11-17T00:31:45.679Z,96.28
2017-11-17T00:34:20.729Z,96.37
2017-11-17T00:36:56.819Z,96.59
2017-11-17T00:39:31.508Z,96.49
2017-11-17T00:42:06.461Z,96.30
2017-11-17T00:44:41.285Z,96.20
2017-11-17T00:47:16.336Z,96.32
2017-11-17T00:49:51.127Z,96.37
2017-11-17T00:52:25.873Z,96.47
2017-11-17T00:55:00.822Z,96.61
2017-11-17T00:57:35.666Z,96.48
2017-11-17T01:00:10.765Z,96.36
2017-11-17T01:02:45.613Z,96.62
2017-11-17T01:05:20.544Z,96.65
2017-11-17T01:07:55.910Z,96.47
2017-11-17T01:10:30.926Z,96.44
2017-11-17T01:13:05.973Z,96.37
2017-11-17T01:15:41.287Z,96.34
2017-11-17T01:18:16.328Z,96.30
2017-11-17T01:20:51.060Z,96.42
2017-11-17T01:23:25.770Z,96.26
2017-11-17T01:26:00.742Z,96.05
2017-11-17T01:28:35.645Z,95.89
2017-11-17T01:31:10.477Z,95.95
2017-11-17T01:33:45.397Z,96.09
2017-11-17T01:36:20.585Z,96.28
2017-11-17T01:38:56.101Z,96.15
2017-11-17T01:41:31.220Z,96.03
2017-11-17T01:44:06.209Z,96.01
2017-11-17T01:46:41.194Z,96.10
2017-11-17T01:49:16.137Z,96.22
2017-11-17T01:51:50.978Z,96.31
2017-11-17T01:54:26.505Z,96.32
2017-11-17T01:57:01.174Z,96.38
2017-11-17T01:59:35.956Z,96.21
2017-11-17T02:02:20.655Z,96.24
2017-11-17T02:04:54.604Z,96.20
2017-11-17T02:07:29.468Z,96.50
2017-11-17T02:10:03.701Z,96.66
2017-11-17T02:12:38.984Z,96.78
2017-11-17T02:15:13.869Z,96.88
2017-11-17T02:17:48.825Z,96.97
2017-11-17T02:20:23.593Z,97.02
2017-11-17T02:22:58.128Z,96.80
2017-11-17T02:25:32.787Z,96.30
2017-11-17T02:28:07.615Z,96.16
2017-11-17T02:30:42.362Z,96.17
2017-11-17T02:33:17.192Z,96.16
2017-11-17T02:35:52.186Z,96.05
2017-11-17T02:38:27.229Z,95.87
2017-11-17T02:41:01.699Z,95.62
2017-11-17T02:43:36.252Z,95.49
2017-11-17T02:46:11.120Z,95.42
2017-11-17T02:48:45.745Z,95.46
2017-11-17T02:51:20.557Z,95.55
2017-11-17T02:53:55.549Z,95.57
2017-11-17T02:56:30.324Z,95.62
2017-11-17T02:59:05.221Z,95.68
2017-11-17T03:01:40.324Z,95.58
2017-11-17T03:04:15.141Z,95.19
2017-11-17T03:06:50.191Z,95.04
2017-11-17T03:09:24.845Z,94.96
2017-11-17T03:11:59.939Z,94.79
2017-11-17T03:14:34.458Z,94.81
2017-11-17T03:17:09.417Z,94.96
2017-11-17T03:19:44.009Z,95.08
2017-11-17T03:22:18.764Z,95.13
2017-11-17T03:24:53.920Z,95.14
2017-11-17T03:27:28.520Z,95.10
2017-11-17T03:30:03.134Z,95.03
2017-11-17T03:32:38.217Z,94.96
2017-11-17T03:35:13.549Z,94.84
2017-11-17T03:37:48.369Z,94.74
2017-11-17T03:40:23.393Z,94.69
2017-11-17T03:42:58.665Z,94.63
2017-11-17T03:45:33.453Z,94.50
2017-11-17T03:48:08.396Z,94.48
2017-11-17T03:50:43.476Z,94.46
2017-11-17T03:53:18.161Z,94.52
2017-11-17T03:55:52.905Z,94.51
2017-11-17T03:58:27.718Z,94.44
2017-11-17T04:01:02.528Z,94.28
2017-11-17T04:03:37.405Z,94.15
2017-11-17T04:06:12.249Z,94.20
2017-11-17T04:08:46.641Z,94.29
2017-11-17T04:11:21.749Z,94.30
2017-11-17T04:13:56.712Z,94.25
2017-11-17T04:16:31.281Z,94.24
2017-11-17T04:19:06.469Z,94.16
2017-11-17T04:21:41.416Z,94.10
2017-11-17T04:24:16.248Z,93.85
2017-11-17T04:26:51.005Z,93.82
2017-11-17T04:29:25.853Z,93.85
2017-11-17T04:32:00.573Z,93.68
2017-11-17T04:34:35.258Z,93.63
2017-11-17T04:37:10.528Z,93.60
2017-11-17T04:39:45.561Z,93.71
2017-11-17T04:42:20.412Z,93.77
2017-11-17T04:44:55.785Z,93.72
2017-11-17T04:47:30.948Z,93.61
2017-11-17T04:50:06.160Z,93.40
2017-11-17T04:52:41.053Z,93.37
2017-11-17T04:55:15.864Z,93.40
2017-11-17T04:57:50.460Z,93.47
2017-11-17T05:00:25.553Z,93.50
2017-11-17T05:03:00.445Z,93.45
2017-11-17T05:05:35.045Z,93.44
2017-11-17T05:08:10.068Z,93.51
2017-11-17T05:10:44.597Z,93.47
2017-11-17T05:13:19.576Z,93.49
2017-11-17T05:15:54.280Z,93.48
2017-11-17T05:18:29.301Z,93.49
2017-11-17T05:21:03.894Z,93.51
2017-11-17T05:23:38.465Z,93.34
2017-11-17T05:26:13.697Z,93.09
2017-11-17T05:28:48.576Z,93.00
2017-11-17T05:31:23.713Z,92.97
2017-11-17T05:33:58.522Z,93.05
2017-11-17T05:36:33.469Z,93.22
2017-11-17T05:39:08.421Z,93.38
2017-11-17T05:41:43.465Z,93.46
2017-11-17T05:44:18.582Z,93.51
2017-11-17T05:46:53.608Z,93.53
2017-11-17T05:49:28.359Z,93.68
2017-11-17T05:52:03.280Z,93.82
2017-11-17T05:54:37.782Z,93.99
2017-11-17T05:57:13.126Z,94.12
2017-11-17T05:59:48.060Z,94.19
2017-11-17T06:02:22.974Z,94.14
2017-11-17T06:04:57.836Z,94.09
2017-11-17T06:07:32.637Z,94.10
2017-11-17T06:10:07.620Z,94.17
2017-11-17T06:12:42.449Z,94.16
2017-11-17T06:15:17.352Z,94.11
2017-11-17T06:17:52.700Z,94.08
2017-11-17T06:20:27.209Z,94.13
2017-11-17T06:23:02.353Z,94.19
2017-11-17T06:25:37.217Z,94.26
2017-11-17T06:28:12.218Z,94.29
2017-11-17T06:30:47.568Z,94.34
2017-11-17T06:33:22.465Z,94.39
2017-11-17T06:35:57.349Z,94.46
2017-11-17T06:38:32.251Z,94.46
2017-11-17T06:41:06.981Z,94.38
2017-11-17T06:43:41.728Z,94.34
2017-11-17T06:46:16.739Z,94.38
2017-11-17T06:48:52.524Z,94.43
2017-11-17T06:51:28.045Z,94.21
2017-11-17T06:54:02.917Z,94.13
2017-11-17T06:56:37.549Z,93.96
2017-11-17T06:59:12.127Z,93.82
2017-11-17T07:01:47.086Z,93.74
2017-11-17T07:04:22.014Z,93.72
2017-11-17T07:06:56.945Z,93.74
2017-11-17T07:09:31.788Z,93.72
2017-11-17T07:12:06.569Z,93.71
2017-11-17T07:14:41.365Z,93.60
2017-11-17T07:17:16.059Z,93.53
2017-11-17T07:19:50.905Z,93.56
2017-11-17T07:22:25.769Z,93.55
2017-11-17T07:25:00.561Z,93.58
2017-11-17T07:27:35.295Z,93.71
2017-11-17T07:30:10.116Z,93.96
2017-11-17T07:32:45.069Z,94.11
2017-11-17T07:35:20.085Z,94.05
2017-11-17T07:37:55.256Z,95.43
2017-11-17T07:40:29.997Z,95.21
2017-11-17T07:43:04.713Z,95.14
2017-11-17T07:45:39.444Z,94.93
2017-11-17T07:48:14.565Z,94.71
2017-11-17T07:50:49.256Z,94.93
2017-11-17T07:53:24.022Z,94.83
2017-11-17T07:55:59.082Z,94.62
2017-11-17T07:58:33.649Z,94.40
2017-11-17T08:01:08.396Z,94.31
2017-11-17T08:03:43.285Z,94.60
2017-11-17T08:06:17.982Z,95.04
2017-11-17T08:08:52.694Z,95.38
2017-11-17T08:11:27.421Z,95.55
2017-11-17T08:14:02.236Z,95.43
2017-11-17T08:16:37.073Z,95.26
2017-11-17T08:19:11.280Z,94.65
2017-11-17T08:21:45.948Z,94.19
2017-11-17T08:24:20.958Z,93.76
2017-11-17T08:26:55.705Z,93.59
2017-11-17T08:29:30.613Z,92.95
2017-11-17T08:32:05.342Z,92.57
2017-11-17T08:34:39.898Z,91.98
2017-11-17T08:37:14.616Z,91.13
2017-11-17T08:39:49.510Z,90.80
2017-11-17T08:42:24.253Z,90.52
2017-11-17T08:44:59.041Z,89.45
2017-11-17T08:47:33.833Z,89.02
2017-11-17T08:50:08.420Z,88.48
2017-11-17T08:52:43.289Z,87.89
2017-11-17T08:55:17.796Z,87.28
2017-11-17T08:57:52.717Z,86.67
2017-11-17T09:00:27.238Z,85.16
2017-11-17T09:03:02.097Z,84.62
2017-11-17T09:05:36.817Z,84.37
2017-11-17T09:08:11.712Z,83.96
2017-11-17T09:10:46.481Z,82.68
2017-11-17T09:13:21.173Z,80.62
2017-11-17T09:15:56.038Z,79.51
2017-11-17T09:18:30.791Z,78.49
2017-11-17T09:21:05.569Z,78.34
2017-11-17T09:23:40.244Z,77.10
2017-11-17T09:26:15.056Z,75.74
2017-11-17T09:28:49.733Z,75.16
2017-11-17T09:31:24.517Z,74.48
2017-11-17T09:33:59.217Z,74.33
2017-11-17T09:36:33.993Z,73.40
2017-11-17T09:39:08.601Z,72.67
2017-11-17T09:41:43.850Z,71.26
2017-11-17T09:44:18.325Z,71.48
2017-11-17T09:46:53.105Z,71.23
2017-11-17T09:49:27.589Z,70.55
2017-11-17T09:52:02.766Z,70.28
2017-11-17T09:54:36.901Z,70.47
2017-11-17T09:57:11.826Z,70.09
2017-11-17T09:59:46.152Z,71.11
2017-11-17T10:02:21.540Z,69.12
2017-11-17T10:04:55.908Z,67.95
2017-11-17T10:07:30.829Z,66.19
2017-11-17T10:10:05.214Z,65.99
2017-11-17T10:12:39.826Z,63.99
2017-11-17T10:15:14.425Z,63.15
2017-11-17T10:17:49.429Z,64.23
2017-11-17T10:20:23.825Z,63.94
2017-11-17T10:22:59.165Z,63.68
2017-11-17T10:25:33.181Z,62.01
2017-11-17T10:28:07.976Z,61.79
2017-11-17T10:30:43.073Z,61.22
2017-11-17T10:33:17.813Z,61.72
2017-11-17T10:35:52.377Z,63.37
2017-11-17T10:38:27.257Z,63.65
2017-11-17T10:41:01.753Z,61.48
2017-11-17T10:43:36.520Z,59.78
2017-11-17T10:46:11.205Z,60.03
2017-11-17T10:48:46.188Z,60.05
2017-11-17T10:51:20.614Z,61.81
2017-11-17T10:53:55.821Z,60.75
2017-11-17T10:56:30.653Z,58.57
2017-11-17T10:59:05.348Z,58.79
2017-11-17T11:01:40.235Z,58.37
2017-11-17T11:04:14.982Z,58.59
2017-11-17T11:06:49.937Z,57.34
2017-11-17T11:09:24.448Z,57.50
2017-11-17T11:11:59.334Z,55.84
2017-11-17T11:14:34.172Z,56.71
2017-11-17T11:17:08.573Z,55.54
2017-11-17T11:19:43.602Z,55.26
2017-11-17T11:22:18.478Z,54.95
2017-11-17T11:24:53.377Z,53.37
2017-11-17T11:27:27.740Z,53.24
2017-11-17T11:30:02.116Z,54.00
2017-11-17T11:32:37.253Z,53.54
2017-11-17T11:35:12.389Z,53.30
2017-11-17T11:37:47.605Z,54.26
2017-11-17T11:40:22.394Z,53.11
2017-11-17T11:42:57.168Z,53.62
2017-11-17T11:45:31.846Z,53.64
2017-11-17T11:48:06.866Z,53.98
2017-11-17T11:50:42.131Z,52.25
2017-11-17T11:53:17.180Z,51.67
2017-11-17T11:55:52.058Z,52.50
2017-11-17T11:58:26.916Z,52.59
2017-11-17T12:01:01.236Z,50.61
2017-11-17T12:03:36.314Z,50.57
2017-11-17T12:06:11.243Z,50.48
2017-11-17T12:08:46.149Z,50.35
2017-11-17T12:11:20.964Z,52.49
2017-11-17T12:13:56.017Z,53.33
2017-11-17T12:16:30.833Z,52.61
2017-11-17T12:19:05.769Z,51.06
2017-11-17T12:21:40.905Z,51.67
2017-11-17T12:24:15.829Z,47.99
2017-11-17T12:26:50.856Z,48.52
2017-11-17T12:29:25.637Z,51.40
2017-11-17T12:32:00.668Z,51.58
2017-11-17T12:34:35.341Z,54.55
2017-11-17T12:37:10.001Z,54.26
2017-11-17T12:39:44.834Z,53.74
2017-11-17T12:42:19.585Z,53.02
2017-11-17T12:44:54.288Z,53.70
2017-11-17T12:47:29.216Z,57.83
2017-11-17T12:50:03.898Z,58.98
2017-11-17T12:52:38.894Z,55.89
2017-11-17T12:55:13.337Z,54.61
2017-11-17T12:57:48.200Z,55.56
2017-11-17T13:00:23.053Z,58.59
2017-11-17T13:02:58.015Z,56.45
2017-11-17T13:05:32.836Z,56.65
2017-11-17T13:08:08.028Z,57.79
2017-11-17T13:10:42.814Z,60.06
2017-11-17T13:13:17.840Z,60.69
2017-11-17T13:15:52.349Z,58.90
2017-11-17T13:18:27.205Z,58.44
2017-11-17T13:21:01.942Z,57.77
2017-11-17T13:23:37.813Z,55.48
2017-11-17T13:26:12.490Z,53.64
2017-11-17T13:28:47.176Z,55.84
2017-11-17T13:31:21.921Z,53.31
2017-11-17T13:33:56.581Z,52.70
2017-11-17T13:36:31.282Z,54.03
2017-11-17T13:39:06.114Z,54.41
2017-11-17T13:41:40.690Z,55.26
2017-11-17T13:44:15.421Z,58.41
2017-11-17T13:46:50.165Z,56.07
2017-11-17T13:49:24.942Z,57.62
2017-11-17T13:51:59.806Z,55.24
2017-11-17T13:54:34.633Z,56.33
2017-11-17T13:57:09.177Z,55.63
2017-11-17T13:59:43.976Z,56.38
2017-11-17T14:02:18.460Z,56.89
2017-11-17T14:04:53.352Z,56.13
2017-11-17T14:07:28.015Z,57.33
2017-11-17T14:10:02.709Z,57.97
2017-11-17T14:12:37.491Z,58.75
2017-11-17T14:15:12.266Z,59.74
2017-11-17T14:17:47.196Z,60.45
2017-11-17T14:20:22.005Z,60.60
2017-11-17T14:22:56.753Z,61.44
2017-11-17T14:25:31.305Z,61.25
2017-11-17T14:28:06.193Z,62.01
2017-11-17T14:30:41.017Z,61.32
2017-11-17T14:33:15.905Z,61.52
2017-11-17T14:35:50.564Z,61.04
2017-11-17T14:38:25.712Z,60.93
2017-11-17T14:41:00.333Z,60.93
2017-11-17T14:43:35.284Z,61.26
2017-11-17T14:46:10.125Z,61.69
2017-11-17T14:48:45.074Z,63.02
2017-11-17T14:51:20.038Z,62.12
2017-11-17T14:53:54.808Z,62.22
2017-11-17T14:56:29.849Z,62.65
2017-11-17T14:59:04.121Z,62.65
2017-11-17T15:01:38.957Z,62.15
2017-11-17T15:04:13.917Z,62.55
2017-11-17T15:06:48.956Z,62.82
2017-11-17T15:09:23.374Z,63.92
2017-11-17T15:11:58.488Z,63.83
2017-11-17T15:14:33.209Z,63.24
2017-11-17T15:17:07.704Z,63.33
2017-11-17T15:19:42.317Z,63.74
2017-11-17T15:22:16.905Z,63.64
2017-11-17T15:24:50.981Z,63.66
2017-11-17T15:27:26.173Z,74.17
2017-11-17T15:30:01.235Z,67.52
2017-11-17T15:32:35.961Z,67.02
2017-11-17T15:35:10.849Z,65.18
2017-11-17T15:37:46.075Z,64.13
2017-11-17T15:40:21.436Z,64.31
2017-11-17T15:42:56.412Z,64.19
2017-11-17T15:45:31.345Z,64.87
2017-11-17T15:48:06.314Z,65.23
2017-11-17T15:50:41.124Z,65.39
2017-11-17T15:53:16.025Z,65.73
2017-11-17T15:55:50.878Z,66.04
2017-11-17T15:58:25.737Z,66.41
2017-11-17T16:01:00.245Z,67.47
2017-11-17T16:03:35.042Z,69.24
2017-11-17T16:06:10.010Z,69.33
2017-11-17T16:08:44.810Z,69.15
2017-11-17T16:11:19.149Z,68.26
2017-11-17T16:13:54.388Z,67.83
2017-11-17T16:16:28.652Z,68.15
2017-11-17T16:19:03.238Z,68.43
2017-11-17T16:21:38.442Z,68.82
2017-11-17T16:24:12.789Z,69.18
2017-11-17T16:26:47.285Z,69.45
2017-11-17T16:29:22.217Z,69.88
2017-11-17T16:31:56.694Z,70.05
2017-11-17T16:34:31.708Z,70.10
2017-11-17T16:37:06.714Z,70.18
2017-11-17T16:39:41.224Z,70.39
2017-11-17T16:42:15.909Z,70.51
2017-11-17T16:44:51.021Z,70.72
2017-11-17T16:47:25.514Z,70.96
2017-11-17T16:50:00.164Z,71.25
2017-11-17T16:52:35.167Z,71.41
2017-11-17T16:55:09.513Z,71.76
2017-11-17T16:57:44.381Z,72.25
2017-11-17T17:00:19.194Z,72.35
2017-11-17T17:02:53.789Z,72.44
2017-11-17T17:05:28.655Z,73.33
2017-11-17T17:08:03.281Z,73.37
2017-11-17T17:10:37.770Z,72.65
2017-11-17T17:13:12.601Z,72.64
2017-11-17T17:15:47.352Z,72.73
2017-11-17T17:18:22.056Z,72.86
2017-11-17T17:20:57.117Z,73.04
2017-11-17T17:23:31.713Z,73.18
2017-11-17T17:26:06.801Z,73.28
2017-11-17T17:28:41.518Z,73.35
2017-11-17T17:31:16.767Z,76.95
2017-11-17T17:33:51.455Z,79.74
2017-11-17T17:36:26.245Z,82.56
2017-11-17T17:39:00.939Z,81.32
2017-11-17T17:41:35.968Z,80.34
2017-11-17T17:44:10.744Z,77.90
2017-11-17T17:46:45.600Z,76.98
2017-11-17T17:49:20.229Z,72.76
2017-11-17T17:51:55.100Z,71.62
2017-11-17T17:54:29.919Z,71.39
2017-11-17T17:57:04.452Z,71.93
2017-11-17T17:59:39.464Z,72.24
2017-11-17T18:02:13.814Z,72.62
2017-11-17T18:04:48.740Z,73.12
2017-11-17T18:07:23.465Z,72.72
2017-11-17T18:09:58.258Z,73.35
2017-11-17T18:12:32.706Z,73.07
2017-11-17T18:15:07.963Z,73.56
2017-11-17T18:17:42.921Z,74.64
2017-11-17T18:20:17.320Z,73.92
2017-11-17T18:22:52.140Z,76.18
2017-11-17T18:25:26.994Z,75.77
2017-11-17T18:28:01.885Z,76.99
2017-11-17T18:30:36.673Z,73.60
2017-11-17T18:33:11.552Z,72.66
2017-11-17T18:35:46.392Z,73.78
2017-11-17T18:38:21.433Z,72.76
2017-11-17T18:40:56.222Z,73.18
2017-11-17T18:43:30.965Z,72.83
2017-11-17T18:46:05.935Z,73.38
2017-11-17T18:48:40.758Z,72.69
2017-11-17T18:51:15.602Z,72.96
2017-11-17T18:53:50.885Z,73.76
2017-11-17T18:56:25.847Z,75.70
2017-11-17T18:59:01.007Z,74.13
2017-11-17T19:01:35.724Z,73.38
2017-11-17T19:04:10.698Z,74.26
2017-11-17T19:06:46.074Z,76.91
2017-11-17T19:09:21.480Z,73.51
2017-11-17T19:11:56.331Z,72.34
2017-11-17T19:14:31.113Z,71.88
2017-11-17T19:17:05.705Z,72.41
2017-11-17T19:19:40.545Z,72.80
2017-11-17T19:22:15.373Z,72.59
2017-11-17T19:24:50.325Z,73.24
2017-11-17T19:27:25.249Z,73.42
2017-11-17T19:30:00.003Z,73.43
2017-11-17T19:32:35.037Z,87.56
2017-11-17T19:35:09.969Z,83.13
2017-11-17T19:37:45.108Z,76.72
2017-11-17T19:40:19.948Z,73.84
2017-11-17T19:42:54.869Z,71.60
2017-11-17T19:45:29.749Z,75.24
2017-11-17T19:48:04.328Z,74.07
2017-11-17T19:50:39.625Z,74.47
2017-11-17T19:53:14.581Z,71.59
2017-11-17T19:55:49.357Z,71.58
2017-11-17T19:58:24.236Z,73.29
2017-11-17T20:00:59.202Z,73.30
2017-11-17T20:03:33.928Z,71.11
2017-11-17T20:06:08.821Z,70.67
2017-11-17T20:08:44.010Z,71.46
2017-11-17T20:11:18.562Z,71.57
2017-11-17T20:13:53.837Z,73.04
2017-11-17T20:16:29.219Z,71.99
2017-11-17T20:19:03.992Z,69.19
2017-11-17T20:21:39.107Z,69.49
2017-11-17T20:24:14.117Z,70.25
2017-11-17T20:26:49.021Z,70.55
2017-11-17T20:29:24.038Z,71.21
2017-11-17T20:31:59.310Z,77.69
2017-11-17T20:34:34.186Z,81.31
2017-11-17T20:37:09.181Z,78.83
2017-11-17T20:39:44.237Z,74.45
2017-11-17T20:42:19.089Z,70.89
2017-11-17T20:44:54.000Z,70.73
2017-11-17T20:47:28.837Z,70.79
2017-11-17T20:50:03.637Z,71.51
2017-11-17T20:52:40.227Z,72.02
2017-11-17T20:55:15.518Z,72.30
2017-11-17T20:57:50.390Z,72.82
2017-11-17T21:00:25.052Z,73.32
2017-11-17T21:03:00.141Z,73.80
2017-11-17T21:05:34.805Z,74.14
2017-11-17T21:08:09.717Z,74.45
2017-11-17T21:10:44.554Z,74.54
2017-11-17T21:13:19.481Z,74.85
2017-11-17T21:15:54.241Z,74.94
2017-11-17T21:18:29.026Z,75.21
2017-11-17T21:21:03.772Z,75.53
2017-11-17T21:23:38.715Z,75.83
2017-11-17T21:26:13.497Z,75.98
2017-11-17T21:28:48.293Z,76.04
2017-11-17T21:31:23.212Z,76.28
2017-11-17T21:33:58.082Z,76.48
2017-11-17T21:36:32.886Z,76.65
2017-11-17T21:39:07.589Z,76.77
2017-11-17T21:41:42.336Z,76.84
2017-11-17T21:44:17.161Z,76.68
2017-11-17T21:46:52.014Z,76.66
2017-11-17T21:49:26.898Z,76.92
2017-11-17T21:52:01.643Z,77.27
2017-11-17T21:54:36.457Z,77.49
2017-11-17T21:57:11.197Z,77.57
2017-11-17T21:59:46.034Z,77.62
2017-11-17T22:02:20.960Z,77.71
2017-11-17T22:04:55.757Z,77.56
2017-11-17T22:07:30.658Z,77.29
2017-11-17T22:10:05.542Z,77.14
2017-11-17T22:12:40.310Z,77.14
2017-11-17T22:15:15.221Z,77.21
2017-11-17T22:17:49.953Z,77.14
2017-11-17T22:20:24.735Z,77.30
2017-11-17T22:22:59.554Z,77.32
2017-11-17T22:25:34.361Z,77.42
2017-11-17T22:28:09.598Z,77.68
2017-11-17T22:30:44.446Z,77.80
2017-11-17T22:33:19.223Z,77.95
2017-11-17T22:35:54.013Z,78.09
2017-11-17T22:38:28.798Z,78.30
2017-11-17T22:41:03.733Z,78.46
2017-11-17T22:43:38.685Z,78.51
2017-11-17T22:46:13.591Z,78.72
2017-11-17T22:48:48.361Z,78.88
2017-11-17T22:51:23.349Z,78.99
2017-11-17T22:53:58.103Z,78.95
2017-11-17T22:56:32.925Z,79.06
2017-11-17T22:59:07.649Z,79.21
2017-11-17T23:01:42.477Z,79.30
2017-11-17T23:04:17.386Z,79.28
2017-11-17T23:06:52.170Z,79.66
2017-11-17T23:09:27.108Z,79.77
2017-11-17T23:12:02.025Z,79.89
2017-11-17T23:14:36.820Z,79.85
2017-11-17T23:17:11.708Z,79.95
2017-11-17T23:19:46.702Z,79.95
2017-11-17T23:22:21.699Z,80.15
2017-11-17T23:24:56.174Z,80.24
2017-11-17T23:27:30.930Z,80.00
2017-11-17T23:30:05.672Z,80.10
2017-11-17T23:32:40.505Z,79.82
2017-11-17T23:35:15.426Z,79.79
2017-11-17T23:37:50.329Z,79.94
2017-11-17T23:40:24.801Z,79.71
2017-11-17T23:42:59.778Z,79.76
2017-11-17T23:45:34.617Z,80.06
2017-11-17T23:48:09.392Z,80.41
2017-11-17T23:50:43.956Z,80.45
2017-11-17T23:53:18.581Z,80.48
2017-11-17T23:55:53.438Z,80.76
2017-11-17T23:58:28.293Z,80.90
